Time;durP1;ratioP1;P1;durP2;ratioP2;P2;SDS_P1;SDS_P2;PMS_P1;PMS_P2;Temp;Humidity;BMP_temperature;BMP_pressure;BME280_temperature;BME280_humidity;BME280_pressure;Samples;Min_cycle;Max_cycle;Signal;HPM_P1;HPM_P2
2021/12/18 00:01:00;;;;;;;29.30;15.53;;;5.20;99.90;;;;;;5106530;28;20392;-55
2021/12/18 00:03:26;;;;;;;30.20;15.07;;;5.30;99.90;;;;;;5105515;28;20441;-54
2021/12/18 00:05:51;;;;;;;29.15;16.30;;;5.30;99.90;;;;;;5108641;28;20407;-58
2021/12/18 00:08:17;;;;;;;28.30;14.50;;;6.80;99.90;;;;;;5107441;28;20720;-54
2021/12/18 00:10:45;;;;;;;29.07;15.50;;;5.40;99.90;;;;;;5109077;28;20726;-55
2021/12/18 00:13:11;;;;;;;27.92;15.10;;;5.40;99.90;;;;;;5108084;28;20466;-54
2021/12/18 00:15:37;;;;;;;29.85;15.25;;;5.30;99.90;;;;;;5106246;28;20428;-54
2021/12/18 00:18:03;;;;;;;30.17;15.97;;;5.20;99.90;;;;;;5101542;28;20555;-55
2021/12/18 00:20:29;;;;;;;28.70;17.10;;;5.00;99.90;;;;;;5102630;28;20401;-55
2021/12/18 00:22:56;;;;;;;28.30;14.82;;;5.10;99.90;;;;;;5098681;28;20459;-58
2021/12/18 00:25:22;;;;;;;30.63;14.65;;;5.20;99.90;;;;;;5107846;28;20884;-55
2021/12/18 00:27:48;;;;;;;31.50;15.82;;;5.30;99.90;;;;;;5109024;28;20456;-55
2021/12/18 00:30:14;;;;;;;32.13;16.85;;;5.00;99.90;;;;;;5109459;28;20858;-57
2021/12/18 00:32:39;;;;;;;32.03;16.60;;;5.00;99.90;;;;;;5103208;28;20399;-57
2021/12/18 00:35:05;;;;;;;32.03;15.93;;;5.00;99.90;;;;;;5108643;28;20838;-57
2021/12/18 00:37:31;;;;;;;30.00;15.15;;;5.00;99.90;;;;;;5108561;28;20421;-57
2021/12/18 00:39:59;;;;;;;31.15;15.90;;;5.00;99.90;;;;;;5100985;28;20405;-54
2021/12/18 00:42:43;;;;;;;32.28;16.75;;;5.00;99.90;;;;;;5104485;28;20382;-54
2021/12/18 00:45:11;;;;;;;30.43;16.30;;;5.00;99.90;;;;;;5103239;28;20410;-57
2021/12/18 00:47:38;;;;;;;30.27;15.13;;;4.80;99.90;;;;;;5103003;28;20440;-56
2021/12/18 00:50:06;;;;;;;31.52;15.65;;;5.40;99.90;;;;;;5093976;28;20397;-55
2021/12/18 00:52:32;;;;;;;30.63;15.38;;;4.90;99.90;;;;;;5096643;28;20400;-57
2021/12/18 00:54:59;;;;;;;33.43;15.73;;;4.90;99.90;;;;;;5109082;27;20396;-62
2021/12/18 00:57:24;;;;;;;30.55;15.68;;;4.90;99.90;;;;;;5108761;28;20860;-57
2021/12/18 00:59:52;;;;;;;30.33;15.70;;;5.90;99.90;;;;;;5109079;28;20391;-56
2021/12/18 01:02:18;;;;;;;30.98;16.15;;;4.70;99.90;;;;;;5108980;28;20519;-57
2021/12/18 01:04:45;;;;;;;30.02;15.70;;;4.70;99.90;;;;;;5108947;28;20401;-56
2021/12/18 01:07:10;;;;;;;30.67;15.43;;;4.80;99.90;;;;;;5105616;28;20574;-57
2021/12/18 01:12:07;;;;;;;30.17;14.63;;;4.80;99.90;;;;;;5092229;28;20485;-57
2021/12/18 01:22:47;;;;;;;32.80;15.45;;;4.90;99.90;;;;;;5108697;28;20367;-57
2021/12/18 01:25:17;;;;;;;33.20;16.73;;;4.90;99.90;;;;;;5101981;28;21056;-57
2021/12/18 01:27:43;;;;;;;27.27;15.15;;;4.80;99.90;;;;;;5108754;28;20431;-57
2021/12/18 01:30:12;;;;;;;30.13;15.40;;;4.80;99.90;;;;;;5107907;28;20408;-57
2021/12/18 01:32:37;;;;;;;30.40;15.40;;;4.80;99.90;;;;;;5110452;28;20403;-55
2021/12/18 01:35:04;;;;;;;34.60;17.30;;;4.80;99.90;;;;;;5110715;28;20854;-54
2021/12/18 01:37:30;;;;;;;30.40;15.10;;;4.90;99.90;;;;;;5110369;28;20407;-54
2021/12/18 01:39:56;;;;;;;30.25;15.45;;;4.80;99.90;;;;;;5111779;28;20380;-60
2021/12/18 01:46:15;;;;;;;29.40;16.52;;;4.60;99.90;;;;;;5105655;27;20490;-56
2021/12/18 01:53:33;;;;;;;34.60;16.70;;;4.60;99.90;;;;;;5120707;27;20368;-56
2021/12/18 01:55:58;;;;;;;32.90;16.70;;;4.60;99.90;;;;;;5111973;28;20399;-57
2021/12/18 01:58:25;;;;;;;32.15;16.15;;;4.50;99.90;;;;;;5109821;27;20435;-57
2021/12/18 02:00:53;;;;;;;37.72;16.77;;;4.90;99.90;;;;;;5117036;27;20380;-57
2021/12/18 02:03:19;;;;;;;30.98;15.57;;;4.60;99.90;;;;;;5121284;27;20463;-57
2021/12/18 02:05:48;;;;;;;33.43;16.97;;;4.50;99.90;;;;;;5122117;27;20500;-56
2021/12/18 02:08:21;;;;;;;32.72;16.45;;;4.40;99.90;;;;;;5113587;27;20599;-57
2021/12/18 02:10:53;;;;;;;33.58;17.38;;;4.30;99.90;;;;;;5112406;28;20543;-56
2021/12/18 02:21:27;;;;;;;30.25;15.57;;;3.90;99.90;;;;;;5091822;28;20374;-56
2021/12/18 02:23:53;;;;;;;32.63;17.00;;;3.90;99.90;;;;;;5091723;28;20477;-60
2021/12/18 02:26:20;;;;;;;28.23;14.73;;;3.90;99.90;;;;;;5090886;28;20516;-57
2021/12/18 02:28:48;;;;;;;33.05;16.10;;;5.50;99.90;;;;;;5091762;28;20915;-57
2021/12/18 02:31:15;;;;;;;31.58;15.63;;;3.90;99.90;;;;;;5089443;28;20410;-57
2021/12/18 02:33:41;;;;;;;31.63;14.80;;;3.80;99.90;;;;;;5098196;28;20391;-57
2021/12/18 02:36:09;;;;;;;31.77;15.15;;;3.80;99.90;;;;;;5101750;28;20469;-56
2021/12/18 02:42:07;;;;;;;29.90;15.52;;;3.70;99.90;;;;;;5090923;28;20388;-56
2021/12/18 02:44:00;;;;;;;31.58;15.27;;;5.00;99.90;;;;;;5083790;28;20451;-58
2021/12/18 02:46:26;;;;;;;30.77;15.30;;;3.80;99.90;;;;;;5091122;28;20895;-57
2021/12/18 02:48:54;;;;;;;28.95;14.13;;;4.40;99.90;;;;;;5106872;28;20431;-56
2021/12/18 02:51:21;;;;;;;32.55;16.02;;;3.80;99.90;;;;;;5090719;28;20461;-57
2021/12/18 02:53:53;;;;;;;31.30;14.27;;;3.80;99.90;;;;;;5091283;28;20448;-56
2021/12/18 02:56:23;;;;;;;33.63;16.00;;;3.80;99.90;;;;;;5106130;28;20390;-57
2021/12/18 02:58:58;;;;;;;33.08;15.93;;;3.90;99.90;;;;;;5091043;28;20847;-56
2021/12/18 03:01:26;;;;;;;35.22;16.08;;;3.90;99.90;;;;;;5107865;28;20381;-57
2021/12/18 03:03:54;;;;;;;34.10;16.63;;;4.90;99.90;;;;;;5111474;28;20364;-57
2021/12/18 03:06:40;;;;;;;36.00;17.27;;;4.00;99.90;;;;;;5110567;28;20435;-56
2021/12/18 03:21:06;;;;;;;30.83;15.02;;;3.20;99.90;;;;;;5111348;28;20413;-56
2021/12/18 03:25:43;;;;;;;35.85;16.40;;;3.80;99.90;;;;;;5111091;28;20384;-57
2021/12/18 03:28:09;;;;;;;33.67;15.55;;;3.70;99.90;;;;;;5110268;27;20448;-56
2021/12/18 03:30:43;;;;;;;31.23;15.70;;;3.70;99.90;;;;;;5110591;28;20459;-57
2021/12/18 03:33:41;;;;;;;37.85;16.85;;;3.50;99.90;;;;;;5110338;28;20427;-56
2021/12/18 03:36:07;;;;;;;35.33;15.50;;;3.50;99.90;;;;;;5108785;28;20388;-57
2021/12/18 03:38:33;;;;;;;30.98;15.35;;;3.50;99.90;;;;;;5111004;28;20905;-56
2021/12/18 03:40:59;;;;;;;35.83;16.42;;;3.50;99.90;;;;;;5109851;28;20459;-61
2021/12/18 03:43:27;;;;;;;36.00;16.65;;;3.60;99.90;;;;;;5110642;28;20468;-57
2021/12/18 03:46:05;;;;;;;33.33;15.35;;;3.70;99.90;;;;;;5109149;28;20408;-56
2021/12/18 03:49:05;;;;;;;34.90;16.75;;;5.10;99.90;;;;;;5107573;28;20885;-58
2021/12/18 03:51:35;;;;;;;33.88;15.90;;;4.40;99.90;;;;;;5108661;27;20400;-55
2021/12/18 03:54:07;;;;;;;36.33;16.58;;;3.60;99.90;;;;;;5115311;27;20387;-55
2021/12/18 03:56:32;;;;;;;35.60;15.68;;;3.50;99.90;;;;;;5114930;27;20371;-54
2021/12/18 03:58:59;;;;;;;33.78;16.10;;;3.50;99.90;;;;;;5116147;27;20715;-58
2021/12/18 04:01:25;;;;;;;32.45;14.45;;;3.50;99.90;;;;;;5127004;27;20784;-56
2021/12/18 04:03:52;;;;;;;32.13;14.55;;;5.00;99.90;;;;;;5110259;28;20380;-55
2021/12/18 04:06:19;;;;;;;37.83;17.50;;;3.40;99.90;;;;;;5109222;28;20623;-55
2021/12/18 04:08:45;;;;;;;33.50;15.00;;;3.50;99.90;;;;;;5110054;28;20392;-55
2021/12/18 04:11:17;;;;;;;36.10;15.10;;;3.60;99.90;;;;;;5109163;28;20380;-55
2021/12/18 04:13:46;;;;;;;32.83;14.82;;;3.40;99.90;;;;;;5109578;28;20384;-55
2021/12/18 04:16:24;;;;;;;33.90;16.30;;;3.40;99.90;;;;;;5109050;28;20738;-55
2021/12/18 04:19:01;;;;;;;34.33;15.07;;;3.40;99.90;;;;;;5110201;28;20475;-55
2021/12/18 04:21:33;;;;;;;32.97;15.20;;;3.50;99.90;;;;;;5110053;28;20380;-55
2021/12/18 04:24:02;;;;;;;32.20;15.60;;;3.40;99.90;;;;;;5109131;28;20886;-58
2021/12/18 04:26:30;;;;;;;32.45;15.48;;;4.10;99.90;;;;;;5107370;28;20410;-55
2021/12/18 04:29:02;;;;;;;35.67;15.43;;;3.50;99.90;;;;;;5097090;28;20376;-59
2021/12/18 04:31:37;;;;;;;31.83;15.40;;;3.50;99.90;;;;;;5097383;28;20382;-57
2021/12/18 04:34:17;;;;;;;32.60;14.88;;;3.50;99.90;;;;;;5104979;28;20376;-57
2021/12/18 04:36:43;;;;;;;34.53;15.02;;;3.50;99.90;;;;;;5109822;28;20463;-57
2021/12/18 04:39:09;;;;;;;34.33;14.82;;;3.50;99.90;;;;;;5108841;28;20577;-57
2021/12/18 04:41:41;;;;;;;31.93;16.13;;;4.20;99.90;;;;;;5108396;28;20920;-56
2021/12/18 04:44:07;;;;;;;32.88;16.20;;;3.50;99.90;;;;;;5108918;28;20395;-57
2021/12/18 04:46:33;;;;;;;37.97;15.70;;;3.50;99.90;;;;;;5109255;28;20400;-56
2021/12/18 04:49:11;;;;;;;36.28;14.80;;;3.60;99.90;;;;;;5109270;28;20388;-60
2021/12/18 04:51:46;;;;;;;27.55;14.27;;;5.10;99.90;;;;;;5109661;28;20373;-56
2021/12/18 04:54:20;;;;;;;34.17;14.90;;;5.10;99.90;;;;;;5108851;28;20467;-56
2021/12/18 04:56:45;;;;;;;29.70;14.18;;;3.60;99.90;;;;;;5109308;28;20373;-56
2021/12/18 04:59:17;;;;;;;29.85;14.68;;;5.20;99.90;;;;;;5107496;28;20449;-57
2021/12/18 05:01:45;;;;;;;31.95;14.48;;;3.60;99.90;;;;;;5107997;28;20395;-57
2021/12/18 05:04:22;;;;;;;32.25;15.07;;;3.70;99.90;;;;;;5108583;28;20458;-56
2021/12/18 05:06:51;;;;;;;32.28;13.77;;;3.70;99.90;;;;;;5106220;28;20420;-57
2021/12/18 05:09:17;;;;;;;35.67;15.13;;;3.80;99.90;;;;;;5099574;28;20442;-56
2021/12/18 05:11:44;;;;;;;34.20;15.63;;;3.70;99.90;;;;;;5110720;28;20818;-56
2021/12/18 05:14:10;;;;;;;34.13;14.63;;;4.80;99.90;;;;;;5091879;28;20397;-57
2021/12/18 05:16:36;;;;;;;30.47;13.13;;;5.00;99.90;;;;;;5110096;28;20438;-56
2021/12/18 05:19:03;;;;;;;32.17;15.57;;;3.70;99.90;;;;;;5112556;28;20461;-57
2021/12/18 05:21:28;;;;;;;30.63;13.85;;;3.80;99.90;;;;;;5113252;28;20760;-57
2021/12/18 05:24:09;;;;;;;32.88;13.10;;;3.70;99.90;;;;;;5113627;28;20426;-57
2021/12/18 05:26:40;;;;;;;29.25;13.38;;;3.60;99.90;;;;;;5113738;28;20849;-56
2021/12/18 05:29:26;;;;;;;29.20;12.98;;;3.60;99.90;;;;;;5112270;28;20483;-56
2021/12/18 05:31:52;;;;;;;25.85;11.32;;;3.50;99.90;;;;;;5112514;28;20423;-56
2021/12/18 05:34:23;;;;;;;27.23;12.40;;;3.60;99.90;;;;;;5112573;28;20480;-57
2021/12/18 05:39:23;;;;;;;25.73;11.70;;;3.40;99.90;;;;;;5112702;28;20384;-55
2021/12/18 05:41:50;;;;;;;28.67;13.23;;;3.40;99.90;;;;;;5112691;28;20376;-55
2021/12/18 05:44:18;;;;;;;26.52;12.30;;;3.30;99.90;;;;;;5111819;28;20851;-56
2021/12/18 05:46:44;;;;;;;28.60;12.93;;;5.00;99.90;;;;;;5111483;28;20431;-55
2021/12/18 05:49:21;;;;;;;30.25;13.52;;;3.20;99.90;;;;;;5105628;28;20393;-55
2021/12/18 05:51:47;;;;;;;29.27;12.70;;;3.30;99.90;;;;;;5108698;28;20379;-55
2021/12/18 05:54:13;;;;;;;31.83;12.60;;;3.30;99.90;;;;;;5111753;28;20388;-55
2021/12/18 05:56:43;;;;;;;27.27;12.88;;;3.30;99.90;;;;;;5112984;28;20392;-55
2021/12/18 05:59:09;;;;;;;29.75;12.85;;;3.40;99.90;;;;;;5111841;28;20457;-55
2021/12/18 06:01:34;;;;;;;29.65;12.75;;;3.40;99.90;;;;;;5112353;28;20388;-55
2021/12/18 06:04:01;;;;;;;29.52;13.25;;;3.40;99.90;;;;;;5112005;28;20386;-59
2021/12/18 06:06:26;;;;;;;27.70;11.52;;;3.50;99.90;;;;;;5110823;28;20868;-53
2021/12/18 06:08:53;;;;;;;26.88;12.40;;;3.50;99.90;;;;;;5100592;28;20404;-55
2021/12/18 06:11:21;;;;;;;28.88;12.27;;;3.50;99.90;;;;;;5102425;28;20369;-55
2021/12/18 06:13:49;;;;;;;29.95;13.10;;;3.50;99.90;;;;;;5104203;28;20522;-55
2021/12/18 06:16:15;;;;;;;32.17;13.53;;;3.40;99.90;;;;;;5093646;28;22586;-57
2021/12/18 06:18:44;;;;;;;28.63;13.98;;;3.50;99.90;;;;;;5101621;28;20368;-55
2021/12/18 06:21:13;;;;;;;28.00;13.80;;;3.40;99.90;;;;;;5115021;27;20420;-55
2021/12/18 06:23:44;;;;;;;30.58;13.55;;;3.50;99.90;;;;;;5101394;28;20428;-55
2021/12/18 06:26:09;;;;;;;27.25;13.00;;;3.60;99.90;;;;;;5098599;28;20406;-55
2021/12/18 06:28:35;;;;;;;27.98;12.13;;;3.70;99.90;;;;;;5097106;27;20483;-54
2021/12/18 06:31:02;;;;;;;24.97;11.40;;;3.70;99.90;;;;;;5100365;27;20415;-58
2021/12/18 06:33:28;;;;;;;26.73;12.35;;;3.70;99.90;;;;;;5101534;28;20439;-55
2021/12/18 06:35:54;;;;;;;24.27;11.27;;;4.70;99.90;;;;;;5096403;28;20451;-55
2021/12/18 06:38:20;;;;;;;21.63;10.23;;;3.80;99.90;;;;;;5102751;28;21061;-55
2021/12/18 06:40:46;;;;;;;18.57;8.73;;;3.80;99.90;;;;;;5098890;27;20485;-55
2021/12/18 06:43:11;;;;;;;19.52;7.85;;;4.10;99.90;;;;;;5098310;27;20482;-55
2021/12/18 06:45:37;;;;;;;24.23;10.07;;;5.40;99.90;;;;;;5096845;27;20400;-55
2021/12/18 06:48:04;;;;;;;25.97;10.20;;;3.70;99.90;;;;;;5096643;28;20847;-57
2021/12/18 06:50:29;;;;;;;20.52;9.40;;;3.60;99.90;;;;;;5101584;27;20414;-56
2021/12/18 06:52:55;;;;;;;20.40;9.20;;;3.60;99.90;;;;;;5103453;27;20399;-55
2021/12/18 06:55:21;;;;;;;17.93;8.67;;;3.50;99.90;;;;;;5101541;27;20396;-55
2021/12/18 06:57:47;;;;;;;18.88;8.35;;;3.50;99.90;;;;;;5097729;27;20416;-56
2021/12/18 07:00:14;;;;;;;18.90;8.77;;;3.50;99.90;;;;;;5100660;28;20934;-55
2021/12/18 07:02:52;;;;;;;16.65;8.35;;;3.50;99.90;;;;;;5101095;27;20389;-55
2021/12/18 07:05:38;;;;;;;19.20;8.45;;;3.40;99.90;;;;;;5101651;27;20972;-55
2021/12/18 07:08:09;;;;;;;17.52;8.18;;;3.40;99.90;;;;;;5103003;27;20414;-55
2021/12/18 07:10:35;;;;;;;20.92;9.48;;;3.50;99.90;;;;;;5091385;27;20405;-55
2021/12/18 07:13:01;;;;;;;17.83;8.27;;;3.50;99.90;;;;;;5090461;27;20871;-59
2021/12/18 07:15:27;;;;;;;19.73;8.60;;;3.60;99.90;;;;;;5089111;28;20398;-55
2021/12/18 07:17:53;;;;;;;21.60;8.93;;;3.70;99.90;;;;;;5091676;28;20445;-54
2021/12/18 07:20:18;;;;;;;19.73;8.75;;;3.70;99.90;;;;;;5100071;27;20411;-55
2021/12/18 07:22:44;;;;;;;18.10;9.20;;;3.70;99.90;;;;;;5097436;28;20398;-55
2021/12/18 07:25:10;;;;;;;20.70;9.23;;;4.50;99.90;;;;;;5091085;28;20402;-54
2021/12/18 07:27:36;;;;;;;20.48;9.95;;;3.90;99.90;;;;;;5093420;28;20512;-55
2021/12/18 07:30:03;;;;;;;18.37;9.03;;;3.90;99.90;;;;;;5096157;27;20425;-58
2021/12/18 07:32:29;;;;;;;21.85;8.90;;;4.00;99.90;;;;;;5098591;27;20447;-55
2021/12/18 07:34:56;;;;;;;22.63;10.02;;;5.30;99.90;;;;;;5091593;28;20867;-55
2021/12/18 07:37:24;;;;;;;19.77;8.68;;;4.00;99.90;;;;;;5099039;27;20726;-55
2021/12/18 07:39:50;;;;;;;19.77;9.73;;;4.00;99.90;;;;;;5097263;27;20417;-54
2021/12/18 07:42:16;;;;;;;19.35;8.93;;;4.10;99.90;;;;;;5089297;27;20485;-56
2021/12/18 07:44:42;;;;;;;19.23;9.53;;;5.20;99.90;;;;;;5099758;27;20559;-55
2021/12/18 07:47:08;;;;;;;19.05;8.90;;;4.20;99.90;;;;;;5112368;27;20407;-54
2021/12/18 07:49:34;;;;;;;20.50;9.10;;;4.30;99.90;;;;;;5109482;27;20400;-55
2021/12/18 07:52:03;;;;;;;19.75;8.20;;;4.20;99.90;;;;;;5117839;27;20401;-55
2021/12/18 07:54:30;;;;;;;17.67;8.07;;;4.20;99.90;;;;;;5093275;27;20394;-55
2021/12/18 07:56:55;;;;;;;18.63;9.07;;;4.20;99.90;;;;;;5093106;28;21715;-55
2021/12/18 07:59:21;;;;;;;20.60;9.65;;;5.70;99.90;;;;;;5098811;28;20398;-56
2021/12/18 08:01:47;;;;;;;19.77;8.90;;;4.10;99.90;;;;;;5092725;28;20412;-55
2021/12/18 08:04:13;;;;;;;21.25;9.30;;;4.20;99.90;;;;;;5095905;28;20398;-55
2021/12/18 08:06:38;;;;;;;20.40;8.70;;;4.20;99.90;;;;;;5108086;27;20408;-57
2021/12/18 08:09:04;;;;;;;21.23;9.67;;;4.30;99.90;;;;;;5095941;27;20936;-58
2021/12/18 08:11:29;;;;;;;20.30;8.77;;;4.40;99.90;;;;;;5090468;28;20393;-55
2021/12/18 08:13:55;;;;;;;17.33;7.70;;;4.40;99.90;;;;;;5106333;27;20392;-55
2021/12/18 08:16:21;;;;;;;18.20;8.80;;;5.50;99.90;;;;;;5107321;27;20422;-57
2021/12/18 08:18:46;;;;;;;20.00;9.30;;;4.40;99.90;;;;;;5099156;27;20417;-55
2021/12/18 08:21:14;;;;;;;20.73;8.87;;;4.30;99.90;;;;;;5101355;28;20476;-55
2021/12/18 08:23:40;;;;;;;18.27;8.20;;;4.30;99.90;;;;;;5096818;27;20936;-55
2021/12/18 08:26:05;;;;;;;20.43;9.20;;;4.50;99.90;;;;;;5090761;28;20505;-57
2021/12/18 08:28:31;;;;;;;17.55;8.70;;;4.40;99.90;;;;;;5091939;28;20412;-55
2021/12/18 08:30:57;;;;;;;21.93;9.37;;;4.50;99.90;;;;;;5089649;28;20411;-55
2021/12/18 08:33:22;;;;;;;18.70;8.30;;;4.70;99.90;;;;;;5096716;27;20406;-55
2021/12/18 08:35:48;;;;;;;19.52;8.57;;;5.20;99.90;;;;;;5096800;28;20517;-54
2021/12/18 08:38:14;;;;;;;20.30;9.10;;;4.60;99.90;;;;;;5087393;28;20394;-55
2021/12/18 08:40:41;;;;;;;20.17;8.90;;;4.10;99.90;;;;;;5092781;28;21126;-55
2021/12/18 08:43:07;;;;;;;19.35;9.00;;;4.50;99.90;;;;;;5091033;28;20402;-55
2021/12/18 08:45:33;;;;;;;23.30;10.10;;;5.80;99.90;;;;;;5100235;28;20399;-56
2021/12/18 08:47:59;;;;;;;19.20;8.40;;;4.50;99.90;;;;;;5093681;28;20405;-55
2021/12/18 08:50:24;;;;;;;21.17;9.80;;;4.60;99.90;;;;;;5099470;28;21042;-56
2021/12/18 08:52:51;;;;;;;19.87;8.60;;;4.50;99.90;;;;;;5098434;27;20390;-56
2021/12/18 08:55:18;;;;;;;23.23;11.25;;;4.60;99.90;;;;;;5121820;27;20408;-56
2021/12/18 08:57:45;;;;;;;20.70;9.20;;;4.60;99.90;;;;;;5106160;28;20406;-56
2021/12/18 09:00:13;;;;;;;18.23;8.80;;;4.70;99.90;;;;;;5098402;27;20394;-56
2021/12/18 09:02:40;;;;;;;19.50;9.48;;;4.70;99.90;;;;;;5098231;28;20412;-57
2021/12/18 09:05:07;;;;;;;20.77;9.00;;;5.20;99.90;;;;;;5107786;28;20398;-58
2021/12/18 09:07:32;;;;;;;22.90;9.20;;;4.70;99.90;;;;;;5095827;28;20418;-56
2021/12/18 09:09:58;;;;;;;18.97;9.10;;;4.70;99.90;;;;;;5088573;28;20414;-55
2021/12/18 09:12:25;;;;;;;22.55;9.77;;;4.50;99.90;;;;;;5101811;28;20406;-56
2021/12/18 09:14:51;;;;;;;23.07;10.37;;;4.50;99.90;;;;;;5099552;28;20475;-56
2021/12/18 09:17:17;;;;;;;21.27;10.30;;;4.50;99.90;;;;;;5101189;28;20416;-57
2021/12/18 09:19:43;;;;;;;22.23;10.20;;;4.60;99.90;;;;;;5096968;28;20394;-56
2021/12/18 09:22:09;;;;;;;19.70;9.20;;;4.80;99.90;;;;;;5093618;28;20390;-57
2021/12/18 09:24:36;;;;;;;21.08;10.07;;;4.70;99.90;;;;;;5100427;28;20395;-55
2021/12/18 09:27:02;;;;;;;19.00;8.98;;;4.60;99.90;;;;;;5107125;28;20408;-56
2021/12/18 09:29:28;;;;;;;25.17;10.18;;;4.60;99.90;;;;;;5090386;27;20480;-57
2021/12/18 09:31:54;;;;;;;22.00;10.27;;;4.60;99.90;;;;;;5093665;28;20496;-56
2021/12/18 09:34:20;;;;;;;22.08;9.93;;;4.40;99.90;;;;;;5095040;28;20402;-56
2021/12/18 09:36:45;;;;;;;24.42;10.68;;;4.30;99.90;;;;;;5098508;28;20375;-56
2021/12/18 09:39:13;;;;;;;23.20;11.27;;;4.30;99.90;;;;;;5097255;28;20433;-55
2021/12/18 09:41:39;;;;;;;20.15;9.57;;;4.30;99.90;;;;;;5101802;28;20404;-54
2021/12/18 09:44:05;;;;;;;21.67;9.90;;;4.40;99.90;;;;;;5089029;28;20464;-59
2021/12/18 09:46:34;;;;;;;22.43;9.97;;;4.40;99.90;;;;;;5100000;28;20414;-56
2021/12/18 09:49:01;;;;;;;23.07;10.13;;;4.40;99.90;;;;;;5093801;28;20773;-55
2021/12/18 09:51:27;;;;;;;21.08;9.35;;;5.20;99.90;;;;;;5098169;28;20384;-55
2021/12/18 09:53:57;;;;;;;19.52;8.93;;;4.40;99.90;;;;;;5100514;28;20400;-58
2021/12/18 09:56:24;;;;;;;21.53;9.03;;;4.50;99.90;;;;;;5092677;28;20410;-56
2021/12/18 09:58:50;;;;;;;20.52;9.35;;;4.70;99.90;;;;;;5097194;28;20388;-56
2021/12/18 10:01:16;;;;;;;21.83;9.57;;;4.80;99.90;;;;;;5094371;28;21663;-55
2021/12/18 10:03:43;;;;;;;20.60;10.35;;;4.60;99.90;;;;;;5098161;28;20804;-55
2021/12/18 10:06:42;;;;;;;22.98;12.43;;;4.60;99.90;;;;;;5098384;28;20409;-56
2021/12/18 10:09:18;;;;;;;22.30;10.63;;;4.50;99.90;;;;;;5094838;27;20400;-57
2021/12/18 10:11:47;;;;;;;20.10;9.67;;;4.60;99.90;;;;;;5097369;28;20443;-56
2021/12/18 10:14:13;;;;;;;19.48;8.85;;;5.60;99.90;;;;;;5128965;27;20432;-55
2021/12/18 10:16:43;;;;;;;21.15;10.13;;;4.60;99.90;;;;;;5096694;27;20407;-56
2021/12/18 10:19:30;;;;;;;21.77;10.52;;;4.70;99.90;;;;;;5094122;28;20881;-57
2021/12/18 10:21:58;;;;;;;24.67;10.98;;;4.80;99.90;;;;;;5107004;27;20469;-56
2021/12/18 10:24:25;;;;;;;23.60;11.98;;;4.80;99.90;;;;;;5089921;28;20390;-55
2021/12/18 10:26:50;;;;;;;19.20;9.75;;;5.00;99.90;;;;;;5095808;28;20409;-55
2021/12/18 10:29:34;;;;;;;19.10;9.10;;;5.10;99.90;;;;;;5094863;28;20413;-56
2021/12/18 10:32:20;;;;;;;18.75;9.10;;;5.00;99.90;;;;;;5110280;27;20388;-56
2021/12/18 10:34:55;;;;;;;18.80;8.25;;;4.90;99.90;;;;;;5098148;28;20392;-55
2021/12/18 10:37:27;;;;;;;21.05;8.85;;;4.80;99.90;;;;;;5096200;28;20441;-55
2021/12/18 10:40:11;;;;;;;17.40;8.20;;;4.70;99.90;;;;;;5107742;27;20398;-56
2021/12/18 10:42:39;;;;;;;17.02;7.95;;;4.90;99.90;;;;;;5101916;28;20406;-54
2021/12/18 10:45:13;;;;;;;19.13;8.50;;;4.80;99.90;;;;;;5098490;28;20426;-56
2021/12/18 10:48:03;;;;;;;19.55;8.23;;;6.10;99.90;;;;;;5091614;28;20433;-54
2021/12/18 10:50:51;;;;;;;19.05;8.57;;;4.50;99.90;;;;;;5095510;27;20460;-54
2021/12/18 10:53:27;;;;;;;19.63;9.23;;;4.50;99.90;;;;;;5096623;28;20376;-55
2021/12/18 10:55:58;;;;;;;20.30;9.75;;;4.60;99.90;;;;;;5096174;27;20441;-57
2021/12/18 10:58:35;;;;;;;20.45;9.90;;;4.80;99.90;;;;;;5092149;28;20398;-55
2021/12/18 11:01:04;;;;;;;22.73;10.23;;;5.00;99.90;;;;;;5092691;28;20465;-55
2021/12/18 11:03:59;;;;;;;18.98;9.75;;;5.00;99.90;;;;;;5092950;27;20429;-54
2021/12/18 11:06:31;;;;;;;20.83;9.63;;;5.20;99.90;;;;;;5082614;27;20564;-55
2021/12/18 11:09:12;;;;;;;19.57;9.27;;;5.10;99.90;;;;;;5095520;27;20918;-54
2021/12/18 11:14:16;;;;;;;20.50;9.50;;;5.00;99.90;;;;;;5088571;27;20493;-59
2021/12/18 11:16:55;;;;;;;18.95;9.43;;;5.10;99.90;;;;;;5091239;28;20389;-55
2021/12/18 11:19:23;;;;;;;23.10;9.82;;;5.10;99.90;;;;;;5091022;28;20408;-57
2021/12/18 11:21:54;;;;;;;19.25;8.90;;;5.20;99.90;;;;;;5094850;28;20413;-56
2021/12/18 11:24:25;;;;;;;19.80;9.25;;;5.30;99.90;;;;;;5092595;27;20404;-55
2021/12/18 11:27:00;;;;;;;21.58;10.15;;;5.40;99.90;;;;;;5093807;27;20513;-55
2021/12/18 11:29:31;;;;;;;20.55;9.65;;;5.30;99.90;;;;;;5090261;28;20483;-55
2021/12/18 11:31:59;;;;;;;19.48;8.48;;;5.10;99.90;;;;;;5091761;27;20428;-54
2021/12/18 11:34:25;;;;;;;18.48;9.77;;;4.90;99.90;;;;;;5089824;28;20486;-54
2021/12/18 11:36:52;;;;;;;21.00;10.30;;;4.90;99.90;;;;;;5092728;27;20396;-54
2021/12/18 11:39:22;;;;;;;18.02;8.93;;;4.90;99.90;;;;;;5092252;27;20417;-55
2021/12/18 11:41:52;;;;;;;21.88;10.85;;;4.70;99.90;;;;;;5090279;28;20388;-54
2021/12/18 11:44:40;;;;;;;23.23;10.70;;;4.60;99.90;;;;;;5091271;28;20408;-55
2021/12/18 11:47:24;;;;;;;21.13;9.95;;;4.70;99.90;;;;;;5092997;28;20417;-54
2021/12/18 11:49:52;;;;;;;23.67;11.07;;;4.60;99.90;;;;;;5093613;28;20471;-56
2021/12/18 11:52:18;;;;;;;24.27;11.90;;;4.70;99.90;;;;;;5104222;28;20455;-57
2021/12/18 11:54:48;;;;;;;22.67;10.40;;;4.70;99.90;;;;;;5098337;28;20404;-54
2021/12/18 11:57:36;;;;;;;21.88;10.40;;;4.60;99.90;;;;;;5103771;28;20401;-54
2021/12/18 12:00:06;;;;;;;21.00;9.73;;;4.60;99.90;;;;;;5094293;28;20409;-56
2021/12/18 12:02:53;;;;;;;43.10;19.27;;;5.80;99.90;;;;;;5088672;28;21175;-54
2021/12/18 12:05:38;;;;;;;24.27;12.50;;;4.70;99.90;;;;;;5103386;28;20412;-55
2021/12/18 12:08:35;;;;;;;21.63;11.07;;;6.00;99.90;;;;;;5100918;27;20489;-54
2021/12/18 12:11:16;;;;;;;22.35;10.63;;;5.00;99.90;;;;;;5102944;28;20489;-55
2021/12/18 12:13:51;;;;;;;22.40;9.90;;;5.00;99.90;;;;;;5099861;28;20784;-55
2021/12/18 12:16:17;;;;;;;22.90;11.90;;;6.60;99.90;;;;;;5107800;28;20423;-55
2021/12/18 12:19:05;;;;;;;20.15;9.30;;;5.10;99.90;;;;;;5098268;28;20374;-55
2021/12/18 12:21:44;;;;;;;21.08;10.55;;;5.10;99.90;;;;;;5088885;28;20394;-54
2021/12/18 12:24:11;;;;;;;21.90;10.88;;;5.00;99.90;;;;;;5088769;28;20377;-59
2021/12/18 12:26:37;;;;;;;21.58;10.48;;;4.80;99.90;;;;;;5091823;28;20404;-54
2021/12/18 12:29:05;;;;;;;24.20;10.50;;;4.70;99.90;;;;;;5109399;28;20382;-54
2021/12/18 12:31:31;;;;;;;22.13;10.35;;;4.70;99.90;;;;;;5109011;28;21078;-54
2021/12/18 12:34:33;;;;;;;24.48;12.32;;;4.70;99.90;;;;;;5109500;28;20471;-55
2021/12/18 12:37:27;;;;;;;23.60;10.98;;;4.90;99.90;;;;;;5098122;28;20404;-54
2021/12/18 12:40:21;;;;;;;22.60;10.77;;;5.00;99.90;;;;;;5109439;28;20378;-55
2021/12/18 12:43:09;;;;;;;20.60;10.40;;;5.00;99.90;;;;;;5098610;27;20408;-55
2021/12/18 12:45:42;;;;;;;22.13;10.07;;;5.10;99.90;;;;;;5109175;28;20388;-58
2021/12/18 12:48:08;;;;;;;21.10;9.70;;;5.10;99.90;;;;;;5105013;28;20404;-55
2021/12/18 12:50:36;;;;;;;20.02;9.23;;;5.20;99.90;;;;;;5107642;28;20460;-57
2021/12/18 12:53:08;;;;;;;19.23;9.60;;;5.20;99.90;;;;;;5100590;28;20390;-54
2021/12/18 12:55:44;;;;;;;22.48;10.85;;;5.20;99.90;;;;;;5097867;28;20777;-55
2021/12/18 12:58:21;;;;;;;22.48;10.38;;;5.20;99.90;;;;;;5101915;28;20432;-54
2021/12/18 13:01:08;;;;;;;32.50;14.82;;;5.30;99.90;;;;;;5098969;28;20401;-55
2021/12/18 13:03:44;;;;;;;20.13;9.93;;;5.50;99.90;;;;;;5098645;28;20414;-55
2021/12/18 13:06:16;;;;;;;17.80;9.13;;;5.50;99.90;;;;;;5098333;28;20398;-60
2021/12/18 13:08:45;;;;;;;20.52;9.85;;;5.20;99.90;;;;;;5095663;28;20975;-56
2021/12/18 13:11:29;;;;;;;19.80;9.35;;;5.20;99.90;;;;;;5095374;28;20376;-60
2021/12/18 13:13:54;;;;;;;21.05;9.38;;;5.10;99.90;;;;;;5103601;28;20394;-54
2021/12/18 13:16:23;;;;;;;20.50;9.13;;;5.20;99.90;;;;;;5107456;28;20402;-55
2021/12/18 13:18:58;;;;;;;19.52;9.65;;;5.20;99.90;;;;;;5100170;28;20752;-54
2021/12/18 13:21:25;;;;;;;20.05;10.13;;;5.20;99.90;;;;;;5102967;28;20440;-55
2021/12/18 13:23:56;;;;;;;18.80;9.17;;;5.30;99.90;;;;;;5115976;28;20396;-55
2021/12/18 13:26:34;;;;;;;18.70;9.20;;;5.30;99.90;;;;;;5113031;28;20408;-58
2021/12/18 13:29:11;;;;;;;19.80;9.82;;;5.40;99.90;;;;;;5119108;27;20465;-54
2021/12/18 13:31:44;;;;;;;19.85;9.10;;;5.40;99.90;;;;;;5120900;27;20433;-54
2021/12/18 13:34:14;;;;;;;18.20;9.73;;;5.50;99.90;;;;;;5115605;27;20368;-55
2021/12/18 13:36:45;;;;;;;20.73;9.60;;;5.60;99.90;;;;;;5099263;27;20377;-54
2021/12/18 13:39:14;;;;;;;20.50;9.77;;;5.90;99.90;;;;;;5100042;28;20386;-55
2021/12/18 13:41:56;;;;;;;20.58;10.60;;;5.70;99.90;;;;;;5105519;28;20368;-54
2021/12/18 13:44:21;;;;;;;19.20;9.82;;;5.70;99.90;;;;;;5095827;28;20476;-54